createdAt,value
2022-11-16T00:02:17.684Z,27.65
2022-11-16T00:04:46.963Z,26.73
2022-11-16T00:07:15.296Z,27.40
2022-11-16T00:09:45.644Z,27.33
2022-11-16T00:12:13.800Z,28.13
2022-11-16T00:14:44.215Z,25.90
2022-11-16T00:17:13.806Z,26.50
2022-11-16T00:19:42.751Z,26.13
2022-11-16T00:22:10.973Z,27.30
2022-11-16T00:24:40.012Z,27.77
2022-11-16T00:27:11.522Z,24.10
2022-11-16T00:29:40.113Z,24.90
2022-11-16T00:32:14.040Z,24.70
2022-11-16T00:34:42.585Z,22.52
2022-11-16T00:37:10.640Z,22.23
2022-11-16T00:39:39.856Z,23.00
2022-11-16T00:42:08.770Z,22.05
2022-11-16T00:44:37.294Z,24.70
2022-11-16T00:47:06.239Z,20.85
2022-11-16T00:49:34.768Z,22.90
2022-11-16T00:52:05.747Z,21.92
2022-11-16T00:54:34.395Z,21.02
2022-11-16T00:57:02.501Z,21.70
2022-11-16T00:59:35.064Z,21.08
2022-11-16T01:02:03.160Z,21.02
2022-11-16T01:04:31.777Z,20.13
2022-11-16T01:07:03.829Z,21.40
2022-11-16T01:09:35.844Z,21.50
2022-11-16T01:12:11.006Z,20.48
2022-11-16T01:14:43.003Z,20.52
2022-11-16T01:17:13.485Z,19.38
2022-11-16T01:19:43.803Z,21.33
2022-11-16T01:22:11.822Z,20.30
2022-11-16T01:24:45.557Z,18.80
2022-11-16T01:27:17.640Z,19.75
2022-11-16T01:29:47.616Z,18.40
2022-11-16T01:32:15.826Z,16.55
2022-11-16T01:34:52.890Z,18.88
2022-11-16T01:37:32.249Z,16.75
2022-11-16T01:40:00.656Z,16.00
2022-11-16T01:42:33.926Z,15.57
2022-11-16T01:45:09.489Z,18.45
2022-11-16T01:47:38.144Z,16.55
2022-11-16T01:50:11.626Z,16.98
2022-11-16T01:52:52.052Z,15.32
2022-11-16T01:55:23.989Z,11.40
2022-11-16T01:58:07.640Z,14.95
2022-11-16T02:00:38.375Z,16.27
2022-11-16T02:03:30.732Z,14.57
2022-11-16T02:06:26.582Z,14.15
2022-11-16T02:09:55.565Z,14.88
2022-11-16T02:12:46.599Z,15.60
2022-11-16T02:15:36.672Z,15.13
2022-11-16T02:18:53.158Z,14.52
2022-11-16T02:21:41.522Z,13.97
2022-11-16T02:25:00.778Z,15.50
2022-11-16T02:27:34.569Z,15.85
2022-11-16T02:30:07.484Z,19.33
2022-11-16T02:32:46.348Z,15.88
2022-11-16T02:35:21.973Z,12.98
2022-11-16T02:38:06.807Z,12.25
2022-11-16T02:40:39.634Z,15.25
2022-11-16T02:43:32.113Z,12.25
2022-11-16T02:46:08.724Z,9.60
2022-11-16T02:48:40.454Z,5.68
2022-11-16T02:51:11.463Z,4.00
2022-11-16T02:53:52.805Z,4.40
2022-11-16T02:56:23.619Z,3.88
2022-11-16T02:58:52.592Z,4.30
2022-11-16T03:01:42.669Z,3.80
2022-11-16T03:04:35.864Z,3.80
2022-11-16T03:07:10.979Z,3.78
2022-11-16T03:09:43.473Z,3.65
2022-11-16T03:12:17.399Z,2.83
2022-11-16T03:15:01.739Z,2.58
2022-11-16T03:17:38.446Z,2.60
2022-11-16T03:20:15.601Z,3.13
2022-11-16T03:23:02.518Z,2.88
2022-11-16T03:25:38.961Z,3.50
2022-11-16T03:28:27.642Z,2.95
2022-11-16T03:31:01.777Z,2.72
2022-11-16T03:33:43.342Z,2.67
2022-11-16T03:36:32.644Z,2.25
2022-11-16T03:39:09.658Z,2.80
2022-11-16T03:41:41.164Z,2.78
2022-11-16T03:44:13.858Z,2.45
2022-11-16T03:46:47.228Z,2.65
2022-11-16T03:49:26.854Z,2.70
2022-11-16T03:51:55.709Z,2.63
2022-11-16T03:54:25.132Z,4.07
2022-11-16T03:56:53.065Z,3.55
2022-11-16T03:59:22.700Z,4.05
2022-11-16T04:01:53.559Z,2.85
2022-11-16T04:04:42.549Z,3.17
2022-11-16T04:07:29.275Z,2.83
2022-11-16T04:10:15.931Z,2.75
2022-11-16T04:13:04.543Z,2.90
2022-11-16T04:15:51.175Z,2.60
2022-11-16T04:18:37.581Z,3.30
2022-11-16T04:21:27.047Z,3.40
2022-11-16T04:24:12.793Z,4.78
2022-11-16T04:27:03.130Z,4.10
2022-11-16T04:29:31.658Z,4.72
2022-11-16T04:32:18.717Z,5.72
2022-11-16T04:35:05.639Z,9.07
2022-11-16T04:37:56.046Z,8.23
2022-11-16T04:40:31.870Z,4.50
2022-11-16T04:43:06.470Z,5.38
2022-11-16T04:45:56.763Z,4.47
2022-11-16T04:48:29.605Z,5.38
2022-11-16T04:50:57.419Z,4.28
2022-11-16T04:53:29.039Z,3.63
2022-11-16T04:56:07.594Z,2.70
2022-11-16T04:58:36.371Z,3.03
2022-11-16T05:01:04.521Z,2.78
2022-11-16T05:03:32.772Z,2.40
2022-11-16T05:06:02.400Z,2.38
2022-11-16T05:08:32.321Z,2.55
2022-11-16T05:11:00.926Z,2.45
2022-11-16T05:13:30.142Z,2.50
2022-11-16T05:15:58.378Z,2.83
2022-11-16T05:18:33.794Z,2.65
2022-11-16T05:21:02.737Z,3.40
2022-11-16T05:23:55.631Z,3.38
2022-11-16T05:26:26.285Z,4.28
2022-11-16T05:28:55.625Z,3.55
2022-11-16T05:31:28.289Z,2.85
2022-11-16T05:33:56.493Z,2.70
2022-11-16T05:36:24.770Z,3.22
2022-11-16T05:38:56.213Z,3.50
2022-11-16T05:41:27.747Z,3.88
2022-11-16T05:43:56.381Z,3.40
2022-11-16T05:46:24.939Z,3.72
2022-11-16T05:48:57.008Z,4.15
2022-11-16T05:51:26.055Z,4.60
2022-11-16T05:53:56.189Z,5.10
2022-11-16T05:56:29.063Z,4.38
2022-11-16T05:59:00.070Z,4.07
2022-11-16T06:01:28.198Z,3.58
2022-11-16T06:04:02.398Z,3.22
2022-11-16T06:06:35.137Z,2.65
2022-11-16T06:09:09.302Z,3.30
2022-11-16T06:11:38.431Z,2.88
2022-11-16T06:14:10.945Z,3.03
2022-11-16T06:16:40.126Z,3.20
2022-11-16T06:19:10.591Z,3.25
2022-11-16T06:21:38.701Z,3.03
2022-11-16T06:24:15.630Z,3.70
2022-11-16T06:26:43.693Z,2.80
2022-11-16T06:29:12.351Z,3.08
2022-11-16T06:31:41.444Z,3.38
2022-11-16T06:34:11.135Z,3.38
2022-11-16T06:36:43.511Z,2.90
2022-11-16T06:39:13.487Z,3.10
2022-11-16T06:41:41.849Z,4.07
2022-11-16T06:44:12.735Z,2.85
2022-11-16T06:46:51.649Z,3.05
2022-11-16T06:49:19.849Z,3.08
2022-11-16T06:51:49.887Z,3.30
2022-11-16T06:56:48.681Z,2.60
2022-11-16T07:01:48.518Z,2.85
2022-11-16T07:04:16.951Z,2.58
2022-11-16T07:06:51.586Z,3.20
2022-11-16T07:09:23.571Z,3.60
2022-11-16T07:11:52.296Z,4.57
2022-11-16T07:14:22.504Z,4.03
2022-11-16T07:16:52.678Z,2.67
2022-11-16T07:19:28.595Z,2.17
2022-11-16T07:21:57.533Z,2.10
2022-11-16T07:24:27.481Z,3.08
2022-11-16T07:26:55.510Z,2.45
2022-11-16T07:29:27.453Z,3.00
2022-11-16T07:32:33.587Z,2.25
2022-11-16T07:35:25.325Z,3.92
2022-11-16T07:37:53.321Z,3.25
2022-11-16T07:40:27.083Z,2.85
2022-11-16T07:42:58.965Z,3.17
2022-11-16T07:45:33.824Z,2.45
2022-11-16T07:48:10.211Z,3.42
2022-11-16T07:51:09.551Z,3.00
2022-11-16T07:53:43.155Z,4.05
2022-11-16T07:56:13.055Z,4.47
2022-11-16T07:58:42.974Z,3.50
2022-11-16T08:01:16.256Z,3.13
2022-11-16T08:03:49.710Z,3.13
2022-11-16T08:06:30.198Z,2.40
2022-11-16T08:08:59.793Z,2.25
2022-11-16T08:11:30.722Z,2.25
2022-11-16T08:14:02.801Z,3.30
2022-11-16T08:16:33.605Z,1.83
2022-11-16T08:19:10.873Z,1.67
2022-11-16T08:21:39.588Z,1.88
2022-11-16T08:24:09.522Z,1.60
2022-11-16T08:26:41.402Z,2.00
2022-11-16T08:29:13.171Z,1.67
2022-11-16T08:31:46.077Z,3.00
2022-11-16T08:34:17.953Z,2.40
2022-11-16T08:36:50.866Z,1.10
2022-11-16T08:39:22.128Z,2.05
2022-11-16T08:44:24.545Z,2.78
2022-11-16T08:46:56.067Z,2.75
2022-11-16T08:49:31.986Z,5.18
2022-11-16T08:52:00.518Z,3.63
2022-11-16T08:54:30.811Z,3.88
2022-11-16T08:57:02.382Z,2.45
2022-11-16T08:59:32.646Z,2.28
2022-11-16T09:02:07.977Z,1.20
2022-11-16T09:04:37.290Z,1.63
2022-11-16T09:07:05.728Z,1.35
2022-11-16T09:09:36.802Z,1.00
2022-11-16T09:12:06.040Z,2.38
2022-11-16T09:14:34.176Z,3.00
2022-11-16T09:17:02.537Z,1.75
2022-11-16T09:19:30.382Z,1.50
2022-11-16T09:22:04.134Z,1.02
2022-11-16T09:24:32.283Z,1.73
2022-11-16T09:27:03.828Z,1.38
2022-11-16T09:29:31.777Z,1.63
2022-11-16T09:32:00.430Z,1.10
2022-11-16T09:34:28.766Z,1.20
2022-11-16T09:36:56.991Z,1.67
2022-11-16T09:39:31.985Z,1.60
2022-11-16T09:42:04.061Z,1.30
2022-11-16T09:45:05.139Z,1.30
2022-11-16T09:48:02.520Z,2.00
2022-11-16T09:50:56.315Z,1.67
2022-11-16T09:53:40.938Z,1.50
2022-11-16T09:56:22.886Z,1.70
2022-11-16T09:59:17.928Z,1.50
2022-11-16T10:02:02.225Z,2.10
2022-11-16T10:04:57.911Z,1.15
2022-11-16T10:07:30.085Z,1.23
2022-11-16T10:10:01.516Z,2.15
2022-11-16T10:12:46.417Z,1.83
2022-11-16T10:15:43.490Z,4.28
2022-11-16T10:18:25.697Z,2.50
2022-11-16T10:21:09.653Z,1.80
2022-11-16T10:23:51.199Z,1.80
2022-11-16T10:26:59.484Z,3.17
2022-11-16T10:29:52.250Z,2.42
2022-11-16T10:32:29.208Z,1.90
2022-11-16T10:35:07.626Z,2.25
2022-11-16T10:37:42.599Z,1.38
2022-11-16T10:40:19.003Z,1.30
2022-11-16T10:42:55.151Z,1.20
2022-11-16T10:45:30.292Z,1.40
2022-11-16T10:48:21.275Z,1.35
2022-11-16T10:50:51.969Z,1.00
2022-11-16T10:53:44.083Z,1.20
2022-11-16T10:56:16.293Z,1.65
2022-11-16T10:58:55.766Z,1.40
2022-11-16T11:01:37.827Z,1.42
2022-11-16T11:04:21.201Z,1.33
2022-11-16T11:06:52.396Z,2.45
2022-11-16T11:09:23.983Z,1.60
2022-11-16T11:12:22.900Z,1.65
2022-11-16T11:15:11.216Z,1.15
2022-11-16T11:17:41.942Z,1.27
2022-11-16T11:20:16.740Z,1.00
2022-11-16T11:22:55.080Z,1.35
2022-11-16T11:25:35.813Z,1.10
2022-11-16T11:28:27.901Z,1.70
2022-11-16T11:31:17.654Z,1.60
2022-11-16T11:34:16.753Z,1.00
2022-11-16T11:36:54.323Z,1.77
2022-11-16T11:39:22.269Z,1.23
2022-11-16T11:42:14.917Z,1.10
2022-11-16T11:45:02.709Z,1.13
2022-11-16T11:48:00.844Z,1.35
2022-11-16T11:50:46.019Z,1.35
2022-11-16T11:53:50.194Z,1.58
2022-11-16T11:56:19.049Z,1.60
2022-11-16T11:58:51.599Z,2.53
2022-11-16T12:01:25.934Z,1.95
2022-11-16T12:04:09.576Z,2.38
2022-11-16T12:06:44.200Z,2.60
2022-11-16T12:09:47.925Z,1.60
2022-11-16T12:12:44.766Z,2.22
2022-11-16T12:15:40.820Z,2.88
2022-11-16T12:18:16.119Z,4.75
2022-11-16T12:20:50.434Z,5.07
2022-11-16T12:23:58.833Z,3.97
2022-11-16T12:26:46.434Z,3.15
2022-11-16T12:29:30.781Z,4.80
2022-11-16T12:32:04.800Z,7.18
2022-11-16T12:35:03.649Z,4.38
2022-11-16T12:37:43.017Z,3.00
2022-11-16T12:40:18.352Z,3.50
2022-11-16T12:43:23.108Z,3.22
2022-11-16T12:46:22.555Z,4.38
2022-11-16T12:49:15.352Z,3.60
2022-11-16T12:52:13.723Z,3.03
2022-11-16T12:55:24.205Z,2.78
2022-11-16T12:57:57.942Z,3.08
2022-11-16T13:00:28.282Z,3.95
2022-11-16T13:03:04.938Z,3.78
2022-11-16T13:05:54.714Z,3.83
2022-11-16T13:09:06.080Z,3.22
2022-11-16T13:11:56.214Z,5.43
2022-11-16T13:14:41.375Z,3.40
2022-11-16T13:17:28.630Z,4.68
2022-11-16T13:20:14.225Z,4.00
2022-11-16T13:22:52.041Z,4.30
2022-11-16T13:25:34.211Z,4.10
2022-11-16T13:28:16.849Z,3.67
2022-11-16T13:30:56.454Z,4.75
2022-11-16T13:33:35.403Z,4.35
2022-11-16T13:36:43.591Z,3.40
2022-11-16T13:39:21.499Z,3.20
2022-11-16T13:42:13.636Z,16.65
2022-11-16T13:44:48.761Z,4.97
2022-11-16T13:47:24.990Z,3.70
2022-11-16T13:49:57.145Z,5.70
2022-11-16T13:55:44.827Z,4.18
2022-11-16T13:58:22.688Z,3.40
2022-11-16T14:01:16.963Z,3.60
2022-11-16T14:03:52.859Z,9.75
2022-11-16T14:06:24.102Z,5.72
2022-11-16T14:08:57.574Z,6.50
2022-11-16T14:11:41.775Z,6.07
2022-11-16T14:14:33.901Z,5.28
2022-11-16T14:17:03.167Z,5.95
2022-11-16T14:19:54.702Z,5.97
2022-11-16T14:22:23.093Z,6.20
2022-11-16T14:25:00.829Z,10.48
2022-11-16T14:27:54.154Z,4.80
2022-11-16T14:30:45.265Z,4.97
2022-11-16T14:33:24.128Z,6.53
2022-11-16T14:35:56.119Z,5.13
2022-11-16T14:38:43.022Z,5.68
2022-11-16T14:41:20.820Z,9.95
2022-11-16T14:43:58.895Z,9.77
2022-11-16T14:46:39.250Z,6.53
2022-11-16T14:49:14.080Z,10.13
2022-11-16T14:52:11.522Z,8.63
2022-11-16T14:54:59.518Z,6.85
2022-11-16T14:57:30.896Z,6.95
2022-11-16T15:00:12.824Z,7.05
2022-11-16T15:02:41.407Z,6.90
2022-11-16T15:05:18.103Z,7.35
2022-11-16T15:07:50.006Z,7.30
2022-11-16T15:10:26.686Z,7.38
2022-11-16T15:12:56.838Z,7.43
2022-11-16T15:15:31.475Z,9.52
2022-11-16T15:18:02.398Z,8.65
2022-11-16T15:20:34.202Z,11.35
2022-11-16T15:23:04.229Z,7.93
2022-11-16T15:25:37.361Z,7.95
2022-11-16T15:28:19.758Z,6.15
2022-11-16T15:30:54.676Z,6.47
2022-11-16T15:33:29.550Z,7.40
2022-11-16T15:35:58.302Z,7.28
2022-11-16T15:38:29.285Z,6.78
2022-11-16T15:41:00.236Z,7.30
2022-11-16T15:43:55.260Z,9.57
2022-11-16T15:46:33.757Z,12.63
2022-11-16T15:49:02.503Z,8.43
2022-11-16T15:51:32.779Z,9.95
2022-11-16T15:54:27.790Z,9.07
2022-11-16T15:57:05.684Z,7.30
2022-11-16T15:59:35.951Z,7.65
2022-11-16T16:02:04.837Z,7.72
2022-11-16T16:04:32.952Z,7.75
2022-11-16T16:07:01.295Z,7.25
2022-11-16T16:09:32.670Z,7.90
2022-11-16T16:12:22.941Z,7.25
2022-11-16T16:14:52.843Z,6.37
2022-11-16T16:17:31.175Z,7.87
2022-11-16T16:20:06.317Z,8.15
2022-11-16T16:22:38.229Z,10.98
2022-11-16T16:25:25.607Z,11.57
2022-11-16T16:27:54.221Z,13.30
2022-11-16T16:30:22.440Z,14.20
2022-11-16T16:32:51.750Z,7.93
2022-11-16T16:35:24.032Z,10.75
2022-11-16T16:37:59.172Z,9.95
2022-11-16T16:40:31.011Z,7.63
2022-11-16T16:43:00.204Z,7.13
2022-11-16T16:45:42.012Z,9.55
2022-11-16T16:48:12.911Z,18.50
2022-11-16T16:50:41.249Z,19.50
2022-11-16T16:53:15.485Z,9.25
2022-11-16T16:55:44.757Z,11.32
2022-11-16T16:58:17.655Z,11.93
2022-11-16T17:00:46.439Z,10.55
2022-11-16T17:03:14.883Z,13.70
2022-11-16T17:05:42.827Z,12.43
2022-11-16T17:08:11.083Z,11.13
2022-11-16T17:10:39.684Z,11.90
2022-11-16T17:13:10.885Z,15.25
2022-11-16T17:15:40.313Z,13.80
2022-11-16T17:18:11.610Z,20.20
2022-11-16T17:23:15.453Z,12.18
2022-11-16T17:25:43.563Z,14.32
2022-11-16T17:28:18.189Z,12.63
2022-11-16T17:30:46.888Z,13.43
2022-11-16T17:33:22.364Z,10.35
2022-11-16T17:36:01.711Z,10.80
2022-11-16T17:38:40.360Z,8.53
2022-11-16T17:41:12.799Z,12.48
2022-11-16T17:43:46.306Z,10.05
2022-11-16T17:46:19.773Z,10.68
2022-11-16T17:48:49.274Z,8.23
2022-11-16T17:51:22.846Z,8.48
2022-11-16T17:53:54.505Z,8.05
2022-11-16T17:56:27.804Z,10.50
2022-11-16T17:59:04.308Z,10.25
2022-11-16T18:01:32.619Z,8.82
2022-11-16T18:04:02.741Z,11.02
2022-11-16T18:06:32.343Z,8.48
2022-11-16T18:09:01.245Z,9.38
2022-11-16T18:11:32.295Z,7.95
2022-11-16T18:14:01.791Z,7.38
2022-11-16T18:16:34.360Z,6.45
2022-11-16T18:19:05.506Z,10.90
2022-11-16T18:21:43.742Z,14.88
2022-11-16T18:24:14.124Z,7.75
2022-11-16T18:26:43.432Z,8.63
2022-11-16T18:29:18.833Z,7.38
2022-11-16T18:31:47.585Z,7.93
2022-11-16T18:34:19.735Z,8.23
2022-11-16T18:36:50.165Z,6.70
2022-11-16T18:39:19.000Z,6.60
2022-11-16T18:41:53.369Z,6.65
2022-11-16T18:44:26.495Z,7.78
2022-11-16T18:46:54.481Z,50.03
2022-11-16T18:49:23.879Z,7.10
2022-11-16T18:51:56.914Z,7.05
2022-11-16T18:54:33.884Z,6.15
2022-11-16T18:57:02.402Z,6.55
2022-11-16T18:59:31.803Z,8.27
2022-11-16T19:01:59.676Z,5.90
2022-11-16T19:04:28.900Z,8.20
2022-11-16T19:06:57.107Z,6.53
2022-11-16T19:09:26.320Z,9.63
2022-11-16T19:11:54.604Z,14.15
2022-11-16T19:14:26.630Z,7.55
2022-11-16T19:16:57.320Z,8.10
2022-11-16T19:19:27.956Z,6.40
2022-11-16T19:21:57.349Z,6.30
2022-11-16T19:24:27.186Z,7.00
2022-11-16T19:26:57.376Z,7.43
2022-11-16T19:29:25.798Z,7.05
2022-11-16T19:31:54.428Z,7.57
2022-11-16T19:34:23.028Z,8.18
2022-11-16T19:36:51.066Z,8.18
2022-11-16T19:39:19.255Z,7.15
2022-11-16T19:41:50.606Z,7.88
2022-11-16T19:44:19.331Z,6.88
2022-11-16T19:46:50.445Z,7.38
2022-11-16T19:49:21.964Z,8.10
2022-11-16T19:51:55.835Z,7.78
2022-11-16T19:54:27.397Z,9.77
2022-11-16T19:56:57.564Z,7.22
2022-11-16T19:59:29.454Z,6.93
2022-11-16T20:01:57.604Z,8.45
2022-11-16T20:04:32.971Z,7.03
2022-11-16T20:07:01.247Z,8.57
2022-11-16T20:09:30.250Z,8.20
2022-11-16T20:11:59.663Z,8.20
2022-11-16T20:14:28.056Z,7.13
2022-11-16T20:16:56.312Z,6.88
2022-11-16T20:19:25.751Z,6.32
2022-11-16T20:22:02.645Z,9.70
2022-11-16T20:24:31.860Z,6.80
2022-11-16T20:27:01.423Z,7.57
2022-11-16T20:29:29.920Z,7.60
2022-11-16T20:31:58.354Z,6.88
2022-11-16T20:34:27.333Z,6.30
2022-11-16T20:36:55.593Z,6.97
2022-11-16T20:39:25.442Z,6.35
2022-11-16T20:41:53.783Z,7.53
2022-11-16T20:44:22.703Z,6.57
2022-11-16T20:46:55.178Z,6.95
2022-11-16T20:49:23.536Z,6.53
2022-11-16T20:51:52.074Z,6.15
2022-11-16T20:54:20.140Z,6.28
2022-11-16T20:56:49.819Z,6.53
2022-11-16T20:59:20.960Z,6.78
2022-11-16T21:04:21.476Z,5.72
2022-11-16T21:06:49.340Z,6.75
2022-11-16T21:09:22.772Z,7.28
2022-11-16T21:12:09.481Z,7.15
2022-11-16T21:14:38.327Z,7.60
2022-11-16T21:17:09.733Z,6.60
2022-11-16T21:19:54.255Z,7.15
2022-11-16T21:22:32.748Z,8.75
2022-11-16T21:25:03.401Z,7.63
2022-11-16T21:27:31.653Z,5.70
2022-11-16T21:30:00.696Z,7.00
2022-11-16T21:32:32.119Z,6.13
2022-11-16T21:35:00.458Z,7.32
2022-11-16T21:37:28.739Z,7.85
2022-11-16T21:39:59.480Z,7.95
2022-11-16T21:42:27.696Z,7.22
2022-11-16T21:44:58.771Z,6.10
2022-11-16T21:52:46.328Z,6.45
2022-11-16T21:55:15.599Z,7.50
2022-11-16T21:57:46.234Z,6.38
2022-11-16T22:00:16.015Z,7.63
2022-11-16T22:02:46.953Z,6.25
2022-11-16T22:05:34.507Z,6.43
2022-11-16T22:08:08.275Z,6.25
2022-11-16T22:10:39.197Z,6.22
2022-11-16T22:18:41.902Z,5.03
2022-11-16T22:21:11.379Z,4.88
2022-11-16T22:23:42.679Z,5.65
2022-11-16T22:26:13.146Z,5.55
2022-11-16T22:28:44.079Z,5.00
2022-11-16T22:31:15.323Z,5.40
2022-11-16T22:33:43.396Z,5.22
2022-11-16T22:36:12.092Z,5.20
2022-11-16T22:38:41.837Z,4.93
2022-11-16T22:41:10.217Z,5.18
2022-11-16T22:43:39.775Z,5.72
2022-11-16T22:46:08.355Z,3.90
2022-11-16T22:48:39.182Z,5.80
2022-11-16T22:51:20.424Z,5.13
2022-11-16T22:53:52.715Z,5.60
2022-11-16T22:56:21.822Z,5.13
2022-11-16T22:58:50.484Z,5.07
2022-11-16T23:01:24.100Z,5.07
2022-11-16T23:03:55.188Z,5.97
2022-11-16T23:06:27.776Z,6.28
2022-11-16T23:08:56.622Z,5.57
2022-11-16T23:11:45.355Z,5.60
2022-11-16T23:14:36.216Z,5.50
2022-11-16T23:17:05.364Z,5.80
2022-11-16T23:19:52.971Z,5.53
2022-11-16T23:22:40.703Z,5.57
2022-11-16T23:25:30.759Z,6.05
2022-11-16T23:28:05.917Z,7.03
2022-11-16T23:30:36.389Z,5.50
2022-11-16T23:33:05.276Z,6.60
2022-11-16T23:35:36.922Z,5.53
2022-11-16T23:38:07.469Z,5.75
2022-11-16T23:40:38.015Z,4.25
2022-11-16T23:43:29.430Z,5.68
2022-11-16T23:48:30.170Z,5.97
2022-11-16T23:50:58.142Z,5.60
2022-11-16T23:53:26.519Z,6.18
2022-11-16T23:55:54.381Z,6.65
2022-11-16T23:58:22.821Z,6.20
